Time;durP1;ratioP1;P1;durP2;ratioP2;P2;SDS_P1;SDS_P2;PMS_P1;PMS_P2;Temp;Humidity;BMP_temperature;BMP_pressure;BME280_temperature;BME280_humidity;BME280_pressure;Samples;Min_cycle;Max_cycle;Signal;HPM_P1;HPM_P2
2022/01/22 00:00:54;;;;;;;8.60;6.00;;;6.20;95.70;;;;;;5119467;28;20410;-47
2022/01/22 00:03:20;;;;;;;9.27;7.40;;;5.90;94.30;;;;;;5119232;28;20188;-46
2022/01/22 00:05:46;;;;;;;10.23;7.40;;;5.70;93.50;;;;;;5101525;28;20233;-47
2022/01/22 00:08:12;;;;;;;9.40;6.37;;;5.60;93.00;;;;;;5120383;28;20187;-46
2022/01/22 00:10:41;;;;;;;6.37;5.60;;;5.40;92.60;;;;;;5120934;28;20459;-46
2022/01/22 00:14:23;;;;;;;6.90;6.20;;;5.30;92.40;;;;;;5120603;28;20204;-46
2022/01/22 00:15:53;;;;;;;8.00;6.00;;;5.20;92.20;;;;;;5105012;28;20426;-46
2022/01/22 00:18:19;;;;;;;8.00;5.77;;;5.10;92.10;;;;;;5101578;28;20810;-46
2022/01/22 00:20:46;;;;;;;8.60;7.60;;;5.00;92.00;;;;;;5119748;28;20441;-46
2022/01/22 00:23:16;;;;;;;7.83;5.90;;;4.90;91.90;;;;;;5119459;28;20557;-47
2022/01/22 00:25:42;;;;;;;7.43;5.53;;;4.80;91.80;;;;;;5119467;28;20431;-47
2022/01/22 00:28:08;;;;;;;10.13;5.67;;;4.80;91.70;;;;;;5119692;28;20474;-47
2022/01/22 00:30:34;;;;;;;6.47;5.10;;;4.70;91.60;;;;;;5101720;28;20442;-47
2022/01/22 00:33:00;;;;;;;10.90;6.33;;;4.70;91.60;;;;;;5120487;28;20267;-46
2022/01/22 00:35:26;;;;;;;6.83;4.80;;;4.60;91.50;;;;;;5119016;28;20599;-46
2022/01/22 00:37:53;;;;;;;8.63;5.60;;;4.60;91.50;;;;;;5120183;28;20533;-46
2022/01/22 00:40:20;;;;;;;6.93;5.30;;;4.60;91.60;;;;;;5120151;28;20428;-46
2022/01/22 00:42:47;;;;;;;7.83;5.70;;;4.50;91.60;;;;;;5120517;28;20402;-46
2022/01/22 00:45:13;;;;;;;6.03;4.90;;;4.50;91.70;;;;;;5120522;28;20429;-46
2022/01/22 00:47:39;;;;;;;6.90;4.90;;;4.50;91.70;;;;;;5119880;28;20410;-46
2022/01/22 00:50:07;;;;;;;11.83;6.13;;;4.50;91.80;;;;;;5120444;28;20517;-46
2022/01/22 00:52:33;;;;;;;6.80;5.27;;;4.40;91.80;;;;;;5119885;28;20479;-46
2022/01/22 00:54:58;;;;;;;6.70;5.10;;;4.40;91.80;;;;;;5119903;28;20429;-46
2022/01/22 00:57:24;;;;;;;5.50;4.97;;;4.40;91.90;;;;;;5119251;28;20207;-46
2022/01/22 00:59:49;;;;;;;6.20;5.10;;;4.40;91.90;;;;;;5119308;28;20195;-46
2022/01/22 01:02:15;;;;;;;5.90;4.70;;;4.40;92.00;;;;;;5119459;28;20172;-45
2022/01/22 01:04:41;;;;;;;7.70;4.87;;;4.40;92.00;;;;;;5119329;28;20225;-46
2022/01/22 01:07:06;;;;;;;5.60;5.00;;;4.40;92.00;;;;;;5119263;28;20581;-46
2022/01/22 01:09:34;;;;;;;5.90;4.57;;;4.40;92.00;;;;;;5118148;28;20191;-46
2022/01/22 01:12:04;;;;;;;6.20;5.30;;;4.40;92.00;;;;;;5101638;28;20203;-46
2022/01/22 01:14:40;;;;;;;8.33;4.60;;;4.40;92.00;;;;;;5119076;28;20418;-47
2022/01/22 01:17:34;;;;;;;6.17;4.70;;;4.40;92.00;;;;;;5118921;28;20783;-46
2022/01/22 01:33:55;;;;;;;7.03;5.33;;;4.40;92.40;;;;;;5117743;28;20417;-47
2022/01/22 01:36:20;;;;;;;5.23;4.60;;;4.40;92.40;;;;;;5117473;28;20448;-46
2022/01/22 01:38:52;;;;;;;5.50;5.00;;;4.40;92.50;;;;;;5117760;28;20745;-46
2022/01/22 01:41:28;;;;;;;6.77;5.37;;;4.40;92.50;;;;;;5117762;28;20176;-46
2022/01/22 01:43:55;;;;;;;5.53;5.03;;;4.40;92.60;;;;;;5118689;28;20769;-46
2022/01/22 01:46:21;;;;;;;6.90;5.07;;;4.40;92.60;;;;;;5100367;28;20468;-46
2022/01/22 01:48:49;;;;;;;6.23;5.23;;;4.40;92.70;;;;;;5118090;28;20438;-47
2022/01/22 01:51:15;;;;;;;8.10;5.47;;;4.40;92.70;;;;;;5118445;28;20197;-47
2022/01/22 01:53:55;;;;;;;5.90;4.93;;;4.30;92.70;;;;;;5118641;28;20804;-47
2022/01/22 01:59:09;;;;;;;5.07;4.57;;;4.40;92.80;;;;;;5103179;28;20411;-46
2022/01/22 02:01:34;;;;;;;6.03;5.00;;;4.40;92.80;;;;;;5118462;28;20414;-46
2022/01/22 02:04:00;;;;;;;6.73;5.20;;;4.40;92.80;;;;;;5118566;28;20400;-46
2022/01/22 02:06:26;;;;;;;5.30;4.80;;;4.40;92.80;;;;;;5117751;28;20176;-46
2022/01/22 02:08:53;;;;;;;9.30;5.43;;;4.40;92.70;;;;;;5118247;28;20523;-47
2022/01/22 02:11:21;;;;;;;6.33;5.40;;;4.40;92.80;;;;;;5117947;28;20190;-47
2022/01/22 02:23:30;;;;;;;6.00;5.00;;;4.40;92.70;;;;;;5100466;28;20449;-47
2022/01/22 02:24:53;;;;;;;8.57;5.53;;;4.40;92.60;;;;;;5116952;28;20404;-47
2022/01/22 02:27:19;;;;;;;7.10;5.60;;;4.40;92.70;;;;;;5117134;28;20425;-47
2022/01/22 02:29:45;;;;;;;6.30;5.17;;;4.40;92.70;;;;;;5117192;28;20893;-47
2022/01/22 02:35:14;;;;;;;6.63;5.87;;;4.40;92.80;;;;;;5117695;28;20571;-46
2022/01/22 02:37:53;;;;;;;6.23;5.60;;;4.40;92.70;;;;;;5118308;28;20487;-45
2022/01/22 02:40:29;;;;;;;7.10;6.40;;;4.40;92.70;;;;;;5118083;28;20486;-46
2022/01/22 02:42:55;;;;;;;8.20;7.03;;;4.50;92.80;;;;;;5118103;28;20437;-46
2022/01/22 02:45:23;;;;;;;9.20;7.30;;;4.50;92.90;;;;;;5118088;28;20453;-47
2022/01/22 02:47:50;;;;;;;9.27;8.07;;;4.40;92.90;;;;;;5117998;28;20501;-47
2022/01/22 02:50:16;;;;;;;11.57;8.90;;;4.50;93.00;;;;;;5118025;28;20445;-47
2022/01/22 02:52:43;;;;;;;8.97;7.87;;;4.50;93.10;;;;;;5118187;28;20464;-47
2022/01/22 02:55:11;;;;;;;13.30;7.80;;;4.50;93.10;;;;;;5134345;28;20437;-47
2022/01/22 02:57:38;;;;;;;10.93;7.93;;;4.50;93.10;;;;;;5138144;28;20476;-46
2022/01/22 03:00:06;;;;;;;10.33;8.03;;;4.50;93.10;;;;;;5138309;28;20511;-45
2022/01/22 03:02:32;;;;;;;10.07;8.73;;;4.50;93.10;;;;;;5138537;28;20718;-46
2022/01/22 03:04:58;;;;;;;8.73;7.43;;;4.50;93.10;;;;;;5138190;28;20432;-46
2022/01/22 03:07:24;;;;;;;9.00;8.00;;;4.50;93.10;;;;;;5138350;28;20180;-46
2022/01/22 03:09:52;;;;;;;11.03;8.83;;;4.50;93.10;;;;;;5138018;28;20424;-46
2022/01/22 03:28:00;;;;;;;9.43;8.53;;;4.50;93.30;;;;;;5117268;28;20460;-46
2022/01/22 03:30:26;;;;;;;9.73;8.67;;;4.50;93.40;;;;;;5117715;28;20841;-46
2022/01/22 03:32:54;;;;;;;9.80;8.27;;;4.40;93.70;;;;;;5119013;28;20188;-46
2022/01/22 03:37:52;;;;;;;10.50;8.23;;;4.50;93.40;;;;;;5121178;28;20508;-46
2022/01/22 03:40:23;;;;;;;8.67;7.80;;;4.40;93.40;;;;;;5113135;28;20413;-46
2022/01/22 03:42:51;;;;;;;8.70;7.80;;;4.50;93.40;;;;;;5121062;28;20425;-46
2022/01/22 03:45:18;;;;;;;10.50;8.47;;;4.50;93.40;;;;;;5121521;28;20421;-47
2022/01/22 03:47:44;;;;;;;9.10;8.23;;;4.50;93.40;;;;;;5121047;28;20429;-47
2022/01/22 03:50:11;;;;;;;11.03;8.10;;;4.50;93.40;;;;;;5103111;28;20445;-46
2022/01/22 03:52:37;;;;;;;11.70;8.20;;;4.50;93.50;;;;;;5121212;28;20414;-46
2022/01/22 03:55:06;;;;;;;9.30;8.13;;;4.40;93.50;;;;;;5120952;28;20432;-46
2022/01/22 03:57:31;;;;;;;9.40;7.80;;;4.40;93.50;;;;;;5120938;28;20452;-46
2022/01/22 03:59:57;;;;;;;9.30;7.87;;;4.40;93.50;;;;;;5120338;28;20702;-46
2022/01/22 04:04:53;;;;;;;11.67;7.33;;;4.40;93.60;;;;;;5120552;28;20479;-46
2022/01/22 04:09:45;;;;;;;8.67;7.77;;;4.40;93.60;;;;;;5120641;28;20419;-46
2022/01/22 04:12:14;;;;;;;8.00;6.93;;;4.40;93.60;;;;;;5120999;28;20172;-46
2022/01/22 04:14:50;;;;;;;8.43;7.53;;;4.40;93.60;;;;;;5120673;28;20443;-47
2022/01/22 04:25:29;;;;;;;13.97;9.40;;;4.40;93.60;;;;;;5120110;28;20445;-47
2022/01/22 04:27:56;;;;;;;10.87;8.70;;;4.40;93.60;;;;;;5102121;28;20445;-46
2022/01/22 04:30:25;;;;;;;9.87;8.87;;;4.40;93.60;;;;;;5120118;28;20716;-46
2022/01/22 04:32:51;;;;;;;10.33;8.57;;;4.40;93.60;;;;;;5120250;28;20493;-46
2022/01/22 04:35:18;;;;;;;12.87;9.10;;;4.40;93.60;;;;;;5120240;28;20422;-46
2022/01/22 04:37:48;;;;;;;12.00;8.83;;;4.40;93.60;;;;;;5118987;28;20491;-46
2022/01/22 04:40:13;;;;;;;9.80;8.47;;;4.40;93.70;;;;;;5120092;28;20410;-46
2022/01/22 04:42:41;;;;;;;10.20;9.20;;;4.40;93.70;;;;;;5119951;28;20437;-46
2022/01/22 04:47:57;;;;;;;11.00;8.30;;;4.40;93.70;;;;;;5120057;28;20440;-47
2022/01/22 04:55:40;;;;;;;11.63;8.33;;;4.30;93.60;;;;;;5119885;28;20433;-46
2022/01/22 04:58:07;;;;;;;9.47;8.57;;;4.30;93.60;;;;;;5119963;28;20485;-46
2022/01/22 05:00:34;;;;;;;10.33;8.67;;;4.30;93.60;;;;;;5119730;28;20412;-46
2022/01/22 05:03:01;;;;;;;9.07;8.13;;;4.30;93.60;;;;;;5119787;28;20418;-49
2022/01/22 05:05:28;;;;;;;10.17;8.97;;;4.30;93.60;;;;;;5118981;28;20800;-49
2022/01/22 05:07:53;;;;;;;9.07;8.17;;;4.30;93.70;;;;;;5118488;28;20478;-48
2022/01/22 05:10:19;;;;;;;11.13;8.50;;;4.30;93.70;;;;;;5119020;28;20441;-49
2022/01/22 05:12:47;;;;;;;10.90;9.03;;;4.40;93.60;;;;;;5100585;28;20192;-49
2022/01/22 05:15:15;;;;;;;10.17;9.23;;;4.40;93.60;;;;;;5100831;28;20828;-42
2022/01/22 05:17:43;;;;;;;10.67;8.53;;;4.40;93.50;;;;;;5100901;28;20505;-41
2022/01/22 05:20:15;;;;;;;9.27;8.20;;;4.40;93.40;;;;;;5119057;28;20426;-43
2022/01/22 05:25:44;;;;;;;9.60;8.47;;;4.40;93.40;;;;;;5118608;28;20559;-42
2022/01/22 05:28:59;;;;;;;9.37;8.37;;;4.40;93.30;;;;;;5116551;28;20437;-42
2022/01/22 05:31:10;;;;;;;10.50;8.07;;;4.40;93.30;;;;;;5117803;28;20422;-44
2022/01/22 05:39:08;;;;;;;12.23;8.87;;;4.50;93.30;;;;;;5118132;28;20425;-41
2022/01/22 05:41:34;;;;;;;10.10;7.90;;;4.50;93.20;;;;;;5101163;28;20405;-41
2022/01/22 05:44:00;;;;;;;10.33;9.27;;;4.50;93.10;;;;;;5118708;28;20477;-41
2022/01/22 05:46:25;;;;;;;11.43;9.37;;;4.50;93.10;;;;;;5118903;28;20637;-42
2022/01/22 05:48:51;;;;;;;10.07;8.50;;;4.50;93.00;;;;;;5118738;28;20183;-43
2022/01/22 05:51:17;;;;;;;11.17;8.70;;;4.50;93.00;;;;;;5118678;28;20176;-43
2022/01/22 05:54:01;;;;;;;12.00;9.90;;;4.50;93.10;;;;;;5118734;28;20460;-41
2022/01/22 06:01:56;;;;;;;10.30;8.40;;;4.60;93.00;;;;;;5118172;28;20741;-43
2022/01/22 06:04:22;;;;;;;9.23;8.30;;;4.60;93.00;;;;;;5117090;28;20414;-41
2022/01/22 06:06:48;;;;;;;9.23;8.33;;;4.50;92.90;;;;;;5117442;28;20668;-44
2022/01/22 06:09:13;;;;;;;13.23;10.27;;;4.60;93.00;;;;;;5117022;28;20266;-44
2022/01/22 06:14:37;;;;;;;13.00;9.40;;;4.60;92.90;;;;;;5072025;28;20223;-42
2022/01/22 06:17:05;;;;;;;9.60;8.60;;;4.50;92.80;;;;;;5117161;28;20504;-42
2022/01/22 06:19:31;;;;;;;10.77;9.60;;;4.60;92.90;;;;;;5099465;28;20168;-42
2022/01/22 06:21:57;;;;;;;9.53;8.47;;;4.60;92.90;;;;;;5117776;28;20418;-43
2022/01/22 06:24:26;;;;;;;11.33;10.17;;;4.50;92.80;;;;;;5117153;28;20191;-42
2022/01/22 06:26:52;;;;;;;10.73;9.63;;;4.60;92.80;;;;;;5118512;28;20410;-42
2022/01/22 06:29:19;;;;;;;12.33;10.43;;;4.60;92.80;;;;;;5117176;28;20461;-42
2022/01/22 06:31:44;;;;;;;11.07;8.83;;;4.60;92.80;;;;;;5116278;28;20228;-42
2022/01/22 06:34:10;;;;;;;13.70;10.20;;;4.60;92.80;;;;;;5116638;28;20437;-41
2022/01/22 06:36:36;;;;;;;12.13;8.60;;;4.60;92.70;;;;;;5115810;28;20188;-44
2022/01/22 06:39:17;;;;;;;11.00;9.07;;;4.60;92.70;;;;;;5115932;28;20200;-42
2022/01/22 06:41:47;;;;;;;10.67;8.73;;;4.60;92.70;;;;;;5115803;28;20526;-43
2022/01/22 06:44:13;;;;;;;12.37;9.90;;;4.60;92.70;;;;;;5115402;28;20437;-42
2022/01/22 06:46:42;;;;;;;14.10;10.03;;;4.60;92.60;;;;;;5115919;28;20433;-41
2022/01/22 06:49:08;;;;;;;13.60;9.50;;;4.60;92.60;;;;;;5115901;28;20410;-45
2022/01/22 06:51:34;;;;;;;10.30;8.73;;;4.60;92.60;;;;;;5116210;28;20436;-42
2022/01/22 06:54:02;;;;;;;12.00;10.20;;;4.60;92.60;;;;;;5116529;28;20359;-42
2022/01/22 06:56:29;;;;;;;12.27;9.30;;;4.60;92.50;;;;;;5117819;28;20168;-43
2022/01/22 06:58:57;;;;;;;13.60;9.90;;;4.60;92.50;;;;;;5117021;28;20476;-42
2022/01/22 07:01:23;;;;;;;12.03;9.20;;;4.60;92.50;;;;;;5117952;28;20414;-44
2022/01/22 07:03:52;;;;;;;9.83;8.80;;;4.60;92.50;;;;;;5117053;28;20406;-43
2022/01/22 07:06:18;;;;;;;13.63;10.33;;;4.70;92.50;;;;;;5108535;28;20422;-43
2022/01/22 07:08:43;;;;;;;11.00;9.30;;;4.70;92.50;;;;;;5121153;28;20406;-44
2022/01/22 07:11:09;;;;;;;11.90;9.47;;;4.60;92.50;;;;;;5120857;28;20651;-41
2022/01/22 07:13:35;;;;;;;12.40;9.53;;;4.60;92.60;;;;;;5120369;28;20418;-42
2022/01/22 07:16:00;;;;;;;11.17;10.07;;;4.70;92.70;;;;;;5120125;28;20558;-44
2022/01/22 07:18:28;;;;;;;13.80;10.03;;;4.70;92.60;;;;;;5119673;28;20208;-44
2022/01/22 07:20:54;;;;;;;13.23;8.70;;;4.70;92.60;;;;;;5118945;28;20546;-42
2022/01/22 07:25:57;;;;;;;12.77;9.30;;;4.70;92.50;;;;;;5120207;28;20826;-42
2022/01/22 07:28:23;;;;;;;12.60;9.70;;;4.70;92.50;;;;;;5120375;28;20474;-42
2022/01/22 07:30:49;;;;;;;10.17;9.07;;;4.70;92.40;;;;;;5120578;28;20189;-42
2022/01/22 07:33:15;;;;;;;10.20;9.10;;;4.80;92.50;;;;;;5121000;28;20205;-43
2022/01/22 07:35:40;;;;;;;11.83;9.90;;;4.80;92.50;;;;;;5121254;28;20199;-42
2022/01/22 07:38:08;;;;;;;10.57;9.47;;;4.70;92.40;;;;;;5121105;28;20470;-45
2022/01/22 07:40:34;;;;;;;10.67;9.03;;;4.80;92.40;;;;;;5121780;28;20675;-40
2022/01/22 07:43:00;;;;;;;13.40;10.10;;;4.80;92.40;;;;;;5121199;28;20506;-41
2022/01/22 07:45:26;;;;;;;9.03;8.13;;;4.80;92.40;;;;;;5121151;28;20181;-41
2022/01/22 07:47:52;;;;;;;13.10;8.83;;;4.80;92.40;;;;;;5120930;28;20775;-41
2022/01/22 07:50:17;;;;;;;11.10;8.77;;;4.80;92.40;;;;;;5121189;28;20516;-40
2022/01/22 07:52:45;;;;;;;10.17;9.07;;;4.80;92.40;;;;;;5120443;28;20467;-41
2022/01/22 07:55:11;;;;;;;11.40;8.90;;;4.80;92.40;;;;;;5120832;28;20183;-41
2022/01/22 07:57:37;;;;;;;10.50;9.33;;;4.80;92.40;;;;;;5103574;28;20487;-42
2022/01/22 08:00:06;;;;;;;11.53;10.43;;;4.90;92.40;;;;;;5121152;28;20240;-41
2022/01/22 08:02:32;;;;;;;11.20;9.73;;;4.90;92.40;;;;;;5117761;28;20259;-40
2022/01/22 08:04:58;;;;;;;11.53;9.90;;;4.90;92.30;;;;;;5112300;28;20434;-44
2022/01/22 08:07:23;;;;;;;10.20;9.10;;;4.90;92.20;;;;;;5105290;28;20442;-40
2022/01/22 08:09:52;;;;;;;10.63;9.63;;;4.90;92.20;;;;;;5100363;28;20180;-43
2022/01/22 08:12:18;;;;;;;13.90;9.63;;;4.90;92.20;;;;;;5108918;28;20741;-42
2022/01/22 08:14:43;;;;;;;12.20;9.37;;;5.00;92.20;;;;;;5119614;28;20417;-44
2022/01/22 08:17:10;;;;;;;10.83;8.80;;;5.00;92.20;;;;;;5119162;28;20480;-43
2022/01/22 08:19:35;;;;;;;11.37;9.47;;;5.00;92.10;;;;;;5121948;27;20192;-41
2022/01/22 08:22:04;;;;;;;9.77;8.70;;;5.00;92.10;;;;;;5119095;28;20430;-43
2022/01/22 08:24:30;;;;;;;10.93;9.60;;;5.00;92.10;;;;;;5119669;28;20229;-43
2022/01/22 08:27:12;;;;;;;12.40;9.47;;;5.00;92.10;;;;;;5119727;28;20434;-42
2022/01/22 08:29:38;;;;;;;11.03;9.93;;;5.00;92.10;;;;;;5119774;28;20454;-44
2022/01/22 08:37:14;;;;;;;12.60;10.23;;;5.00;92.20;;;;;;5118526;28;20480;-43
2022/01/22 08:39:40;;;;;;;12.30;9.87;;;5.10;92.30;;;;;;5118358;28;20418;-42
2022/01/22 08:42:06;;;;;;;12.17;10.10;;;5.10;92.30;;;;;;5118728;28;20184;-45
2022/01/22 08:44:32;;;;;;;14.17;10.07;;;5.10;92.40;;;;;;5119667;28;20175;-41
2022/01/22 08:46:58;;;;;;;10.77;9.67;;;5.10;92.40;;;;;;5119676;28;20588;-42
2022/01/22 08:49:25;;;;;;;10.90;9.80;;;5.10;92.40;;;;;;5118869;28;20441;-43
2022/01/22 08:51:52;;;;;;;11.87;10.60;;;5.20;92.40;;;;;;5119109;28;20196;-43
2022/01/22 08:54:17;;;;;;;12.10;10.37;;;5.20;92.40;;;;;;5119570;28;20437;-40
2022/01/22 08:56:45;;;;;;;12.73;10.00;;;5.20;92.40;;;;;;5118700;28;20422;-44
2022/01/22 08:59:12;;;;;;;13.00;10.57;;;5.20;92.40;;;;;;5118601;28;20188;-42
2022/01/22 09:01:39;;;;;;;12.73;10.50;;;5.30;92.40;;;;;;5118159;28;20421;-42
2022/01/22 09:04:05;;;;;;;12.63;11.33;;;5.30;92.40;;;;;;5118923;28;20405;-40
2022/01/22 09:06:32;;;;;;;11.47;9.87;;;5.30;92.40;;;;;;5101518;28;20482;-41
2022/01/22 09:09:08;;;;;;;14.83;10.83;;;5.30;92.40;;;;;;5117598;28;20416;-41
2022/01/22 09:11:34;;;;;;;14.10;10.77;;;5.30;92.40;;;;;;5116810;28;20421;-41
2022/01/22 09:14:00;;;;;;;12.47;9.93;;;5.40;92.40;;;;;;5117136;28;20398;-41
2022/01/22 09:16:27;;;;;;;14.00;10.53;;;5.40;92.40;;;;;;5117084;28;20433;-41
2022/01/22 09:18:54;;;;;;;12.87;10.80;;;5.40;92.40;;;;;;5116883;28;20469;-42
2022/01/22 09:21:20;;;;;;;13.90;10.80;;;5.40;92.40;;;;;;5099469;28;20434;-42
2022/01/22 09:23:45;;;;;;;11.87;10.60;;;5.40;92.40;;;;;;5117885;28;20684;-40
2022/01/22 09:26:11;;;;;;;8.50;3.47;;;5.40;92.40;;;;;;5118388;28;21022;-40
2022/01/22 09:28:38;;;;;;;6.57;5.83;;;5.90;99.70;;;;;;5099790;28;20231;-42
2022/01/22 09:31:04;;;;;;;8.00;6.03;;;7.10;99.90;;;;;;5116413;28;20649;-40
2022/01/22 09:33:30;;;;;;;9.30;6.30;;;8.20;99.90;;;;;;5118069;28;20486;-42
2022/01/22 09:35:55;;;;;;;6.30;5.33;;;9.10;99.90;;;;;;5133043;27;20424;-41
2022/01/22 09:38:21;;;;;;;5.30;4.03;;;10.00;99.90;;;;;;5138352;27;20811;-40
2022/01/22 09:40:47;;;;;;;6.40;4.07;;;10.70;99.90;;;;;;5138422;27;20252;-41
2022/01/22 09:43:13;;;;;;;5.43;3.83;;;11.30;98.60;;;;;;5138903;27;20425;-42
2022/01/22 09:45:39;;;;;;;5.47;4.50;;;11.90;96.90;;;;;;5139281;27;20421;-39
2022/01/22 09:48:06;;;;;;;5.47;4.70;;;12.50;95.40;;;;;;5124411;27;20190;-42
2022/01/22 09:50:33;;;;;;;9.17;8.27;;;12.80;94.00;;;;;;5111464;28;20434;-40
2022/01/22 09:52:59;;;;;;;9.30;8.30;;;12.60;91.60;;;;;;5135038;27;20774;-41
2022/01/22 09:55:24;;;;;;;8.53;7.63;;;12.10;88.30;;;;;;5135218;27;20431;-42
2022/01/22 09:57:53;;;;;;;12.53;9.50;;;11.50;85.30;;;;;;5138309;27;20207;-43
2022/01/22 10:00:19;;;;;;;9.70;8.80;;;10.90;83.70;;;;;;5136391;27;20180;-41
2022/01/22 10:02:48;;;;;;;10.27;9.23;;;10.30;83.10;;;;;;5117678;28;20480;-41
2022/01/22 10:05:32;;;;;;;10.87;9.77;;;9.80;84.40;;;;;;5098440;28;20412;-41
2022/01/22 10:08:34;;;;;;;9.87;8.87;;;9.40;85.50;;;;;;5118067;28;20422;-42
2022/01/22 10:11:03;;;;;;;9.13;8.27;;;9.00;85.00;;;;;;5116627;28;20405;-42
2022/01/22 10:13:45;;;;;;;10.10;8.87;;;8.70;85.50;;;;;;5116893;28;20834;-42
2022/01/22 10:16:29;;;;;;;8.43;7.63;;;8.40;86.10;;;;;;5117476;28;20409;-40
2022/01/22 10:19:15;;;;;;;12.80;8.83;;;8.20;86.70;;;;;;5117713;28;20521;-43
2022/01/22 10:21:47;;;;;;;9.83;7.90;;;8.00;87.10;;;;;;5099331;28;20425;-41
2022/01/22 10:24:29;;;;;;;10.47;8.63;;;7.90;87.40;;;;;;5117737;28;20483;-41
2022/01/22 10:27:33;;;;;;;11.33;9.17;;;7.80;87.60;;;;;;5099152;28;20860;-42
2022/01/22 10:30:06;;;;;;;10.83;9.23;;;7.60;87.80;;;;;;5015690;28;20476;-42
2022/01/22 10:35:25;;;;;;;9.20;8.30;;;7.40;88.20;;;;;;5118065;28;20410;-44
2022/01/22 10:37:58;;;;;;;10.63;8.20;;;7.30;88.40;;;;;;5117563;28;20473;-42
2022/01/22 10:40:31;;;;;;;9.60;8.60;;;7.20;88.80;;;;;;5118134;28;20833;-45
2022/01/22 10:46:20;;;;;;;12.60;9.87;;;7.00;89.30;;;;;;5103133;28;20494;-44
2022/01/22 10:49:08;;;;;;;15.03;9.20;;;7.00;89.60;;;;;;5106305;27;20883;-44
2022/01/22 10:51:47;;;;;;;11.60;9.30;;;6.90;89.80;;;;;;5116953;28;20456;-42
2022/01/22 10:54:14;;;;;;;10.47;9.37;;;6.90;90.00;;;;;;5123749;28;20412;-42
2022/01/22 10:56:41;;;;;;;10.30;9.23;;;6.90;90.20;;;;;;5123487;28;20430;-42
2022/01/22 10:59:12;;;;;;;11.53;9.23;;;6.90;90.30;;;;;;5122398;28;20845;-42
2022/01/22 11:01:43;;;;;;;11.03;9.80;;;6.90;90.40;;;;;;5122452;28;20706;-42
2022/01/22 11:04:12;;;;;;;10.97;9.73;;;6.90;90.50;;;;;;5122930;28;20401;-42
2022/01/22 11:06:43;;;;;;;10.33;9.07;;;6.90;90.60;;;;;;5105194;28;20692;-42
2022/01/22 11:09:08;;;;;;;10.30;8.73;;;6.90;90.60;;;;;;5122323;28;20409;-42
2022/01/22 11:11:37;;;;;;;11.57;10.37;;;6.90;90.70;;;;;;5104780;28;20731;-43
2022/01/22 11:14:08;;;;;;;11.53;8.03;;;6.90;90.70;;;;;;5122868;28;20187;-42
2022/01/22 11:16:35;;;;;;;7.90;5.70;;;7.10;95.10;;;;;;5123491;28;20717;-42
2022/01/22 11:19:02;;;;;;;7.33;6.33;;;8.00;99.90;;;;;;5105747;28;20457;-42
2022/01/22 11:21:29;;;;;;;10.47;8.27;;;8.90;99.90;;;;;;5123177;28;20424;-42
2022/01/22 11:23:55;;;;;;;10.27;7.90;;;9.30;99.90;;;;;;5124007;27;20442;-42
2022/01/22 11:26:21;;;;;;;11.10;9.40;;;9.40;98.50;;;;;;5106747;28;20893;-40
2022/01/22 11:28:51;;;;;;;12.20;9.60;;;9.30;96.10;;;;;;5124569;28;20557;-40
2022/01/22 11:31:17;;;;;;;12.57;9.93;;;9.20;94.50;;;;;;5123826;27;20210;-40
2022/01/22 11:33:44;;;;;;;12.67;10.77;;;9.00;93.60;;;;;;5106017;28;20441;-40
2022/01/22 11:36:25;;;;;;;10.83;9.63;;;8.80;92.90;;;;;;5105729;28;20405;-40
2022/01/22 11:39:00;;;;;;;11.17;10.07;;;8.70;92.40;;;;;;5123029;28;20480;-42
2022/01/22 11:41:28;;;;;;;13.27;10.90;;;8.50;91.90;;;;;;5103498;28;20508;-42
2022/01/22 11:44:19;;;;;;;10.67;9.57;;;8.40;91.60;;;;;;5121972;28;20413;-41
2022/01/22 11:46:46;;;;;;;9.83;8.70;;;8.30;91.30;;;;;;5121336;28;20436;-40
2022/01/22 11:49:18;;;;;;;10.70;8.13;;;8.20;91.10;;;;;;5121717;28;20424;-40
2022/01/22 11:51:47;;;;;;;9.60;8.60;;;8.20;91.00;;;;;;5120384;28;20461;-41
2022/01/22 11:54:14;;;;;;;8.13;7.43;;;8.10;90.90;;;;;;5116904;28;20420;-39
2022/01/22 11:56:54;;;;;;;8.80;7.90;;;8.10;90.80;;;;;;5117875;28;20506;-40
2022/01/22 11:59:27;;;;;;;9.17;7.70;;;8.10;90.70;;;;;;5117974;28;20416;-40
2022/01/22 12:01:56;;;;;;;8.23;7.40;;;8.10;90.60;;;;;;5118551;28;20524;-41
2022/01/22 12:04:38;;;;;;;7.03;6.43;;;8.00;90.50;;;;;;5120349;28;20406;-41
2022/01/22 12:07:03;;;;;;;7.93;7.13;;;8.10;90.50;;;;;;5101509;28;20422;-42
2022/01/22 12:10:05;;;;;;;8.80;6.40;;;8.00;90.40;;;;;;5120716;28;20834;-40
2022/01/22 12:15:05;;;;;;;7.23;6.63;;;8.00;90.40;;;;;;5119991;28;20458;-41
2022/01/22 12:18:00;;;;;;;6.80;6.10;;;8.00;90.30;;;;;;5119867;28;20910;-40
2022/01/22 12:23:06;;;;;;;7.07;6.23;;;8.00;90.20;;;;;;5119182;28;20481;-40
2022/01/22 12:25:31;;;;;;;7.53;6.27;;;8.00;90.20;;;;;;5119460;28;20417;-41
2022/01/22 12:28:00;;;;;;;5.93;5.33;;;8.00;90.20;;;;;;5119349;28;20418;-41
2022/01/22 12:30:47;;;;;;;6.73;6.13;;;8.00;90.20;;;;;;5119029;28;20184;-46
2022/01/22 12:33:28;;;;;;;8.67;6.37;;;8.00;90.20;;;;;;5119509;28;20460;-41
2022/01/22 12:35:58;;;;;;;6.33;5.73;;;8.00;90.20;;;;;;5101408;28;20504;-40
2022/01/22 12:38:49;;;;;;;6.70;5.70;;;8.00;90.10;;;;;;5118859;28;20486;-40
2022/01/22 12:41:46;;;;;;;7.03;5.30;;;8.00;90.10;;;;;;5118639;28;20426;-42
2022/01/22 12:44:24;;;;;;;6.67;5.40;;;8.00;90.10;;;;;;5119349;28;20844;-40
2022/01/22 12:46:54;;;;;;;6.93;5.57;;;8.00;90.10;;;;;;5118551;28;20440;-41
2022/01/22 12:49:23;;;;;;;5.27;4.37;;;7.90;90.10;;;;;;5100276;28;20466;-40
2022/01/22 12:52:00;;;;;;;5.80;4.50;;;7.80;90.20;;;;;;5119404;28;20431;-42
2022/01/22 12:54:44;;;;;;;4.07;3.67;;;7.80;90.20;;;;;;5119739;28;20406;-41
2022/01/22 12:57:15;;;;;;;4.90;3.87;;;7.80;90.30;;;;;;5119572;28;20442;-41
2022/01/22 13:00:13;;;;;;;4.77;4.10;;;7.80;90.70;;;;;;5118276;28;20425;-44
2022/01/22 13:02:41;;;;;;;5.43;3.50;;;7.80;91.70;;;;;;5118015;28;20505;-41
2022/01/22 13:05:09;;;;;;;4.67;3.57;;;8.70;99.90;;;;;;5118593;28;20835;-41
2022/01/22 13:07:42;;;;;;;5.40;3.53;;;9.70;99.90;;;;;;5118028;28;20422;-42
2022/01/22 13:10:12;;;;;;;5.87;3.50;;;10.70;99.90;;;;;;5118956;28;20541;-42
2022/01/22 13:12:42;;;;;;;4.27;3.87;;;11.30;99.60;;;;;;5118955;28;20695;-41
2022/01/22 13:15:10;;;;;;;4.33;3.93;;;11.40;96.00;;;;;;5118907;28;20422;-42
2022/01/22 13:17:37;;;;;;;3.63;3.23;;;11.20;93.10;;;;;;5117930;28;20453;-41
2022/01/22 13:20:04;;;;;;;4.87;3.90;;;10.90;91.40;;;;;;5118266;28;20529;-42
2022/01/22 13:22:36;;;;;;;4.63;4.13;;;10.50;90.00;;;;;;5100029;28;20460;-41
2022/01/22 13:25:09;;;;;;;7.50;6.80;;;10.20;88.40;;;;;;5099999;28;20864;-41
2022/01/22 13:27:36;;;;;;;7.60;6.73;;;9.80;88.40;;;;;;5117716;28;20414;-40
2022/01/22 13:30:04;;;;;;;6.70;6.00;;;9.50;88.10;;;;;;5116892;28;20469;-42
2022/01/22 13:48:59;;;;;;;11.13;9.40;;;8.20;88.90;;;;;;5075477;28;20429;-41
2022/01/22 13:51:26;;;;;;;11.43;9.33;;;8.20;89.30;;;;;;5118480;28;20410;-41
2022/01/22 13:53:54;;;;;;;9.10;8.20;;;8.10;89.60;;;;;;5117615;28;20705;-41
2022/01/22 13:56:22;;;;;;;7.70;6.90;;;8.00;89.80;;;;;;5099846;28;20681;-41
2022/01/22 13:58:53;;;;;;;7.63;6.80;;;8.00;90.00;;;;;;5117763;28;20511;-43
2022/01/22 14:01:31;;;;;;;6.90;6.17;;;7.90;90.00;;;;;;5117210;28;20422;-41
2022/01/22 14:04:13;;;;;;;6.07;5.40;;;7.90;90.00;;;;;;5097979;28;20727;-43
2022/01/22 14:06:41;;;;;;;6.80;5.67;;;7.80;90.00;;;;;;5098124;28;20442;-41
2022/01/22 14:09:19;;;;;;;6.30;5.70;;;7.70;90.10;;;;;;5097327;28;20480;-41
2022/01/22 14:12:03;;;;;;;7.03;6.40;;;7.70;90.20;;;;;;5096179;28;20773;-41
2022/01/22 14:14:35;;;;;;;6.67;6.07;;;7.60;90.30;;;;;;5098058;28;20410;-42
2022/01/22 14:17:09;;;;;;;7.03;6.33;;;7.50;90.40;;;;;;5095969;28;20855;-40
2022/01/22 14:19:35;;;;;;;6.73;6.03;;;7.50;90.50;;;;;;5097999;28;20398;-41
2022/01/22 14:22:01;;;;;;;8.10;7.10;;;7.40;90.50;;;;;;5097226;28;20473;-42
2022/01/22 14:24:30;;;;;;;8.63;7.33;;;7.40;90.60;;;;;;5097261;28;20665;-40
2022/01/22 14:26:56;;;;;;;9.27;7.80;;;7.30;90.70;;;;;;5078796;28;20192;-41
2022/01/22 14:29:22;;;;;;;8.90;8.00;;;7.30;90.80;;;;;;5096852;28;20466;-42
2022/01/22 14:31:53;;;;;;;8.17;6.63;;;7.30;90.90;;;;;;5097486;28;20434;-41
2022/01/22 14:34:32;;;;;;;8.07;7.27;;;7.20;91.00;;;;;;5097010;28;20181;-42
2022/01/22 14:36:59;;;;;;;7.80;7.00;;;7.20;91.10;;;;;;5096828;28;20501;-42
2022/01/22 14:43:47;;;;;;;7.67;6.97;;;7.20;91.10;;;;;;5096053;28;20437;-42
2022/01/22 14:45:08;;;;;;;7.00;6.27;;;7.10;91.10;;;;;;5097415;28;20437;-41
2022/01/22 14:47:35;;;;;;;8.27;7.20;;;7.10;91.20;;;;;;5106696;28;20461;-42
2022/01/22 14:50:00;;;;;;;8.87;8.00;;;7.10;91.60;;;;;;5116553;28;20436;-42
2022/01/22 14:52:29;;;;;;;8.27;7.07;;;7.10;91.30;;;;;;5117697;28;20687;-41
2022/01/22 14:54:58;;;;;;;8.60;7.80;;;7.00;91.30;;;;;;5100155;28;20483;-41
2022/01/22 14:57:27;;;;;;;7.53;6.73;;;7.00;91.30;;;;;;5116819;28;20500;-41
2022/01/22 14:59:53;;;;;;;7.07;6.47;;;7.00;91.40;;;;;;5116285;28;20484;-43
2022/01/22 15:02:19;;;;;;;6.80;6.10;;;6.90;91.40;;;;;;5116241;28;20477;-41
2022/01/22 15:04:46;;;;;;;7.70;6.97;;;6.90;91.40;;;;;;5116953;28;20171;-41